sensor_id;sensor_type;location;lat;lon;timestamp;P1;durP1;ratioP1;P2;durP2;ratioP2
43457;SDS011;29046;54.184;18.680;2023-09-18T00:01:07;30.08;;;18.13;;
43457;SDS011;29046;54.184;18.680;2023-09-18T00:03:39;35.55;;;19.15;;
43457;SDS011;29046;54.184;18.680;2023-09-18T00:06:07;27.85;;;18.67;;
43457;SDS011;29046;54.184;18.680;2023-09-18T00:08:35;28.13;;;20.02;;
43457;SDS011;29046;54.184;18.680;2023-09-18T00:11:03;26.80;;;18.40;;
43457;SDS011;29046;54.184;18.680;2023-09-18T00:13:30;29.92;;;19.35;;
43457;SDS011;29046;54.184;18.680;2023-09-18T00:15:58;32.17;;;18.48;;
43457;SDS011;29046;54.184;18.680;2023-09-18T00:18:26;31.73;;;19.15;;
43457;SDS011;29046;54.184;18.680;2023-09-18T00:20:54;33.63;;;18.75;;
43457;SDS011;29046;54.184;18.680;2023-09-18T00:23:21;28.17;;;18.50;;
43457;SDS011;29046;54.184;18.680;2023-09-18T00:25:49;29.92;;;19.70;;
43457;SDS011;29046;54.184;18.680;2023-09-18T00:28:17;29.23;;;19.60;;
43457;SDS011;29046;54.184;18.680;2023-09-18T00:30:49;30.52;;;19.50;;
43457;SDS011;29046;54.184;18.680;2023-09-18T00:33:17;32.40;;;19.17;;
43457;SDS011;29046;54.184;18.680;2023-09-18T00:35:50;34.42;;;19.75;;
43457;SDS011;29046;54.184;18.680;2023-09-18T00:38:18;28.15;;;19.63;;
43457;SDS011;29046;54.184;18.680;2023-09-18T00:40:46;25.80;;;18.23;;
43457;SDS011;29046;54.184;18.680;2023-09-18T00:43:14;25.77;;;19.38;;
43457;SDS011;29046;54.184;18.680;2023-09-18T00:45:44;25.00;;;17.23;;
43457;SDS011;29046;54.184;18.680;2023-09-18T00:48:12;28.10;;;16.73;;
43457;SDS011;29046;54.184;18.680;2023-09-18T00:50:40;33.42;;;19.65;;
43457;SDS011;29046;54.184;18.680;2023-09-18T00:53:08;25.35;;;16.83;;
43457;SDS011;29046;54.184;18.680;2023-09-18T00:55:36;31.58;;;17.55;;
43457;SDS011;29046;54.184;18.680;2023-09-18T00:58:04;26.33;;;16.85;;
43457;SDS011;29046;54.184;18.680;2023-09-18T01:00:32;26.13;;;16.85;;
43457;SDS011;29046;54.184;18.680;2023-09-18T01:03:00;30.45;;;17.30;;
43457;SDS011;29046;54.184;18.680;2023-09-18T01:05:33;28.67;;;18.13;;
43457;SDS011;29046;54.184;18.680;2023-09-18T01:08:02;26.27;;;17.25;;
43457;SDS011;29046;54.184;18.680;2023-09-18T01:10:33;27.73;;;16.27;;
43457;SDS011;29046;54.184;18.680;2023-09-18T01:13:04;25.80;;;18.80;;
43457;SDS011;29046;54.184;18.680;2023-09-18T01:15:42;30.17;;;18.25;;
43457;SDS011;29046;54.184;18.680;2023-09-18T01:18:18;28.98;;;18.10;;
43457;SDS011;29046;54.184;18.680;2023-09-18T01:20:46;26.10;;;17.50;;
43457;SDS011;29046;54.184;18.680;2023-09-18T01:23:13;23.55;;;16.20;;
43457;SDS011;29046;54.184;18.680;2023-09-18T01:25:41;22.17;;;17.38;;
43457;SDS011;29046;54.184;18.680;2023-09-18T01:28:09;24.42;;;17.88;;
43457;SDS011;29046;54.184;18.680;2023-09-18T01:30:37;30.77;;;17.60;;
43457;SDS011;29046;54.184;18.680;2023-09-18T01:33:05;29.23;;;18.13;;
43457;SDS011;29046;54.184;18.680;2023-09-18T01:35:33;26.80;;;18.27;;
43457;SDS011;29046;54.184;18.680;2023-09-18T01:38:01;33.97;;;18.88;;
43457;SDS011;29046;54.184;18.680;2023-09-18T01:40:30;32.78;;;19.60;;
43457;SDS011;29046;54.184;18.680;2023-09-18T01:43:00;31.23;;;19.50;;
43457;SDS011;29046;54.184;18.680;2023-09-18T01:45:28;27.33;;;18.25;;
43457;SDS011;29046;54.184;18.680;2023-09-18T01:47:55;30.85;;;18.20;;
43457;SDS011;29046;54.184;18.680;2023-09-18T01:50:23;23.92;;;18.25;;
43457;SDS011;29046;54.184;18.680;2023-09-18T01:52:51;28.05;;;18.83;;
43457;SDS011;29046;54.184;18.680;2023-09-18T01:55:18;27.42;;;18.20;;
43457;SDS011;29046;54.184;18.680;2023-09-18T01:57:46;37.90;;;18.73;;
43457;SDS011;29046;54.184;18.680;2023-09-18T02:00:14;30.08;;;18.15;;
43457;SDS011;29046;54.184;18.680;2023-09-18T02:02:42;24.40;;;17.08;;
43457;SDS011;29046;54.184;18.680;2023-09-18T02:05:24;27.15;;;18.25;;
43457;SDS011;29046;54.184;18.680;2023-09-18T02:07:52;28.90;;;17.73;;
43457;SDS011;29046;54.184;18.680;2023-09-18T02:10:20;27.40;;;18.63;;
43457;SDS011;29046;54.184;18.680;2023-09-18T02:12:47;29.08;;;17.63;;
43457;SDS011;29046;54.184;18.680;2023-09-18T02:15:15;27.30;;;17.90;;
43457;SDS011;29046;54.184;18.680;2023-09-18T02:17:43;29.52;;;17.13;;
43457;SDS011;29046;54.184;18.680;2023-09-18T02:20:11;31.60;;;17.17;;
43457;SDS011;29046;54.184;18.680;2023-09-18T02:22:39;23.25;;;16.58;;
43457;SDS011;29046;54.184;18.680;2023-09-18T02:25:07;25.33;;;16.95;;
43457;SDS011;29046;54.184;18.680;2023-09-18T02:27:34;25.98;;;17.98;;
43457;SDS011;29046;54.184;18.680;2023-09-18T02:30:02;22.85;;;17.10;;
43457;SDS011;29046;54.184;18.680;2023-09-18T02:32:30;24.35;;;16.58;;
43457;SDS011;29046;54.184;18.680;2023-09-18T02:34:58;23.80;;;16.52;;
43457;SDS011;29046;54.184;18.680;2023-09-18T02:37:26;28.60;;;18.83;;
43457;SDS011;29046;54.184;18.680;2023-09-18T02:39:55;26.55;;;17.65;;
43457;SDS011;29046;54.184;18.680;2023-09-18T02:42:23;29.33;;;18.98;;
43457;SDS011;29046;54.184;18.680;2023-09-18T02:44:51;29.08;;;17.65;;
43457;SDS011;29046;54.184;18.680;2023-09-18T02:47:18;29.17;;;18.90;;
43457;SDS011;29046;54.184;18.680;2023-09-18T02:49:46;24.23;;;17.55;;
43457;SDS011;29046;54.184;18.680;2023-09-18T02:52:14;25.10;;;16.75;;
43457;SDS011;29046;54.184;18.680;2023-09-18T02:54:41;24.05;;;17.38;;
43457;SDS011;29046;54.184;18.680;2023-09-18T02:57:09;25.77;;;18.30;;
43457;SDS011;29046;54.184;18.680;2023-09-18T02:59:37;28.95;;;18.15;;
43457;SDS011;29046;54.184;18.680;2023-09-18T03:02:04;29.25;;;18.65;;
43457;SDS011;29046;54.184;18.680;2023-09-18T03:04:32;27.80;;;18.67;;
43457;SDS011;29046;54.184;18.680;2023-09-18T03:07:00;29.45;;;19.58;;
43457;SDS011;29046;54.184;18.680;2023-09-18T03:09:27;26.48;;;17.77;;
43457;SDS011;29046;54.184;18.680;2023-09-18T03:11:55;28.27;;;19.17;;
43457;SDS011;29046;54.184;18.680;2023-09-18T03:14:23;28.30;;;18.65;;
43457;SDS011;29046;54.184;18.680;2023-09-18T03:16:50;30.00;;;19.05;;
43457;SDS011;29046;54.184;18.680;2023-09-18T03:19:18;33.30;;;18.17;;
43457;SDS011;29046;54.184;18.680;2023-09-18T03:21:45;25.95;;;16.85;;
43457;SDS011;29046;54.184;18.680;2023-09-18T03:24:13;21.30;;;14.10;;
43457;SDS011;29046;54.184;18.680;2023-09-18T03:26:41;23.80;;;15.90;;
43457;SDS011;29046;54.184;18.680;2023-09-18T03:29:09;26.30;;;17.25;;
43457;SDS011;29046;54.184;18.680;2023-09-18T03:31:36;26.73;;;19.00;;
43457;SDS011;29046;54.184;18.680;2023-09-18T03:34:05;33.95;;;18.58;;
43457;SDS011;29046;54.184;18.680;2023-09-18T03:36:32;29.17;;;18.92;;
43457;SDS011;29046;54.184;18.680;2023-09-18T03:39:02;32.67;;;20.50;;
43457;SDS011;29046;54.184;18.680;2023-09-18T03:41:30;28.45;;;20.30;;
43457;SDS011;29046;54.184;18.680;2023-09-18T03:44:01;29.25;;;19.35;;
43457;SDS011;29046;54.184;18.680;2023-09-18T03:46:29;29.13;;;19.77;;
43457;SDS011;29046;54.184;18.680;2023-09-18T03:48:57;28.75;;;19.15;;
43457;SDS011;29046;54.184;18.680;2023-09-18T03:51:25;28.77;;;19.95;;
43457;SDS011;29046;54.184;18.680;2023-09-18T03:53:53;30.38;;;19.42;;
43457;SDS011;29046;54.184;18.680;2023-09-18T03:56:21;23.33;;;17.42;;
43457;SDS011;29046;54.184;18.680;2023-09-18T03:58:49;30.60;;;18.40;;
43457;SDS011;29046;54.184;18.680;2023-09-18T04:01:18;27.48;;;17.27;;
43457;SDS011;29046;54.184;18.680;2023-09-18T04:03:46;25.30;;;17.35;;
43457;SDS011;29046;54.184;18.680;2023-09-18T04:06:13;31.58;;;18.60;;
43457;SDS011;29046;54.184;18.680;2023-09-18T04:08:41;23.42;;;17.15;;
43457;SDS011;29046;54.184;18.680;2023-09-18T04:11:09;26.30;;;17.17;;
43457;SDS011;29046;54.184;18.680;2023-09-18T04:13:37;22.55;;;16.63;;
43457;SDS011;29046;54.184;18.680;2023-09-18T04:16:05;23.17;;;16.67;;
43457;SDS011;29046;54.184;18.680;2023-09-18T04:18:33;24.95;;;17.48;;
43457;SDS011;29046;54.184;18.680;2023-09-18T04:21:00;24.73;;;17.20;;
43457;SDS011;29046;54.184;18.680;2023-09-18T04:23:28;23.73;;;15.80;;
43457;SDS011;29046;54.184;18.680;2023-09-18T04:25:56;30.67;;;17.48;;
43457;SDS011;29046;54.184;18.680;2023-09-18T04:28:25;23.70;;;16.17;;
43457;SDS011;29046;54.184;18.680;2023-09-18T04:30:52;26.05;;;18.90;;
43457;SDS011;29046;54.184;18.680;2023-09-18T04:33:20;33.90;;;19.23;;
43457;SDS011;29046;54.184;18.680;2023-09-18T04:35:48;27.75;;;18.77;;
43457;SDS011;29046;54.184;18.680;2023-09-18T04:38:16;31.27;;;17.58;;
43457;SDS011;29046;54.184;18.680;2023-09-18T04:40:46;27.45;;;18.10;;
43457;SDS011;29046;54.184;18.680;2023-09-18T04:43:14;30.15;;;18.90;;
43457;SDS011;29046;54.184;18.680;2023-09-18T04:45:41;28.23;;;18.60;;
43457;SDS011;29046;54.184;18.680;2023-09-18T04:48:10;27.42;;;19.20;;
43457;SDS011;29046;54.184;18.680;2023-09-18T04:50:37;27.95;;;20.13;;
43457;SDS011;29046;54.184;18.680;2023-09-18T04:53:05;30.48;;;19.15;;
43457;SDS011;29046;54.184;18.680;2023-09-18T04:55:33;24.50;;;18.40;;
43457;SDS011;29046;54.184;18.680;2023-09-18T04:58:00;33.03;;;17.63;;
43457;SDS011;29046;54.184;18.680;2023-09-18T05:00:30;27.83;;;18.25;;
43457;SDS011;29046;54.184;18.680;2023-09-18T05:02:58;26.75;;;18.23;;
43457;SDS011;29046;54.184;18.680;2023-09-18T05:05:28;24.58;;;16.10;;
43457;SDS011;29046;54.184;18.680;2023-09-18T05:07:56;33.03;;;18.42;;
43457;SDS011;29046;54.184;18.680;2023-09-18T05:10:24;29.88;;;17.23;;
43457;SDS011;29046;54.184;18.680;2023-09-18T05:12:52;36.55;;;18.23;;
43457;SDS011;29046;54.184;18.680;2023-09-18T05:15:25;29.23;;;18.05;;
43457;SDS011;29046;54.184;18.680;2023-09-18T05:17:57;40.90;;;17.60;;
43457;SDS011;29046;54.184;18.680;2023-09-18T05:20:25;46.75;;;17.88;;
43457;SDS011;29046;54.184;18.680;2023-09-18T05:22:56;42.47;;;20.95;;
43457;SDS011;29046;54.184;18.680;2023-09-18T05:25:25;41.35;;;19.27;;
43457;SDS011;29046;54.184;18.680;2023-09-18T05:27:54;76.50;;;22.08;;
43457;SDS011;29046;54.184;18.680;2023-09-18T05:32:58;175.68;;;22.33;;
43457;SDS011;29046;54.184;18.680;2023-09-18T05:35:36;102.88;;;19.67;;
43457;SDS011;29046;54.184;18.680;2023-09-18T05:38:04;121.88;;;19.55;;
43457;SDS011;29046;54.184;18.680;2023-09-18T05:40:32;189.18;;;21.80;;
43457;SDS011;29046;54.184;18.680;2023-09-18T05:43:00;87.25;;;22.25;;
43457;SDS011;29046;54.184;18.680;2023-09-18T05:45:27;143.55;;;19.40;;
43457;SDS011;29046;54.184;18.680;2023-09-18T05:47:55;107.15;;;18.85;;
43457;SDS011;29046;54.184;18.680;2023-09-18T05:50:35;102.88;;;19.42;;
43457;SDS011;29046;54.184;18.680;2023-09-18T05:53:03;104.05;;;21.00;;
43457;SDS011;29046;54.184;18.680;2023-09-18T05:55:32;82.13;;;21.50;;
43457;SDS011;29046;54.184;18.680;2023-09-18T05:58:00;50.40;;;18.25;;
43457;SDS011;29046;54.184;18.680;2023-09-18T06:00:29;60.63;;;14.80;;
43457;SDS011;29046;54.184;18.680;2023-09-18T06:02:58;44.88;;;12.90;;
43457;SDS011;29046;54.184;18.680;2023-09-18T06:05:26;25.45;;;15.10;;
43457;SDS011;29046;54.184;18.680;2023-09-18T06:07:54;29.05;;;15.90;;
43457;SDS011;29046;54.184;18.680;2023-09-18T06:10:21;27.42;;;16.70;;
43457;SDS011;29046;54.184;18.680;2023-09-18T06:12:49;36.28;;;17.73;;
43457;SDS011;29046;54.184;18.680;2023-09-18T06:15:16;30.33;;;17.90;;
43457;SDS011;29046;54.184;18.680;2023-09-18T06:17:45;27.23;;;16.15;;
43457;SDS011;29046;54.184;18.680;2023-09-18T06:20:13;28.45;;;15.93;;
43457;SDS011;29046;54.184;18.680;2023-09-18T06:22:43;27.70;;;15.32;;
43457;SDS011;29046;54.184;18.680;2023-09-18T06:25:10;20.55;;;13.73;;
43457;SDS011;29046;54.184;18.680;2023-09-18T06:27:38;23.65;;;14.90;;
43457;SDS011;29046;54.184;18.680;2023-09-18T06:30:06;25.67;;;15.00;;
43457;SDS011;29046;54.184;18.680;2023-09-18T06:32:34;25.45;;;14.88;;
43457;SDS011;29046;54.184;18.680;2023-09-18T06:35:04;19.48;;;13.57;;
43457;SDS011;29046;54.184;18.680;2023-09-18T06:37:32;24.42;;;13.95;;
43457;SDS011;29046;54.184;18.680;2023-09-18T06:39:59;18.55;;;13.48;;
43457;SDS011;29046;54.184;18.680;2023-09-18T06:42:31;23.55;;;14.85;;
43457;SDS011;29046;54.184;18.680;2023-09-18T06:44:59;24.30;;;15.57;;
43457;SDS011;29046;54.184;18.680;2023-09-18T06:47:28;24.70;;;15.45;;
43457;SDS011;29046;54.184;18.680;2023-09-18T06:49:56;30.80;;;14.13;;
43457;SDS011;29046;54.184;18.680;2023-09-18T06:52:24;27.05;;;14.25;;
43457;SDS011;29046;54.184;18.680;2023-09-18T06:54:53;24.95;;;13.05;;
43457;SDS011;29046;54.184;18.680;2023-09-18T06:57:21;21.02;;;12.80;;
43457;SDS011;29046;54.184;18.680;2023-09-18T06:59:48;18.88;;;12.10;;
43457;SDS011;29046;54.184;18.680;2023-09-18T07:02:16;17.55;;;11.60;;
43457;SDS011;29046;54.184;18.680;2023-09-18T07:04:44;15.30;;;11.13;;
43457;SDS011;29046;54.184;18.680;2023-09-18T07:07:13;17.77;;;12.15;;
43457;SDS011;29046;54.184;18.680;2023-09-18T07:09:41;17.83;;;11.60;;
43457;SDS011;29046;54.184;18.680;2023-09-18T07:12:29;20.67;;;11.30;;
43457;SDS011;29046;54.184;18.680;2023-09-18T07:15:01;17.58;;;11.13;;
43457;SDS011;29046;54.184;18.680;2023-09-18T07:17:33;15.85;;;11.70;;
43457;SDS011;29046;54.184;18.680;2023-09-18T07:20:02;13.77;;;10.43;;
43457;SDS011;29046;54.184;18.680;2023-09-18T07:25:10;13.00;;;10.80;;
43457;SDS011;29046;54.184;18.680;2023-09-18T07:27:38;13.15;;;11.02;;
43457;SDS011;29046;54.184;18.680;2023-09-18T07:30:11;12.63;;;10.95;;
43457;SDS011;29046;54.184;18.680;2023-09-18T07:32:40;11.52;;;10.30;;
43457;SDS011;29046;54.184;18.680;2023-09-18T07:35:09;14.00;;;9.20;;
43457;SDS011;29046;54.184;18.680;2023-09-18T07:37:37;16.83;;;9.73;;
43457;SDS011;29046;54.184;18.680;2023-09-18T07:40:05;12.88;;;9.20;;
43457;SDS011;29046;54.184;18.680;2023-09-18T07:42:35;12.18;;;8.45;;
43457;SDS011;29046;54.184;18.680;2023-09-18T07:45:02;12.05;;;7.88;;
43457;SDS011;29046;54.184;18.680;2023-09-18T07:47:30;12.13;;;8.48;;
43457;SDS011;29046;54.184;18.680;2023-09-18T07:49:59;11.20;;;8.30;;
43457;SDS011;29046;54.184;18.680;2023-09-18T07:52:27;10.45;;;7.82;;
43457;SDS011;29046;54.184;18.680;2023-09-18T07:54:55;10.02;;;8.43;;
43457;SDS011;29046;54.184;18.680;2023-09-18T07:57:28;10.38;;;8.38;;
43457;SDS011;29046;54.184;18.680;2023-09-18T07:59:57;9.45;;;7.85;;
43457;SDS011;29046;54.184;18.680;2023-09-18T08:02:25;10.35;;;8.60;;
43457;SDS011;29046;54.184;18.680;2023-09-18T08:04:55;12.95;;;7.78;;
43457;SDS011;29046;54.184;18.680;2023-09-18T08:07:23;10.65;;;7.75;;
43457;SDS011;29046;54.184;18.680;2023-09-18T08:09:51;9.10;;;7.97;;
43457;SDS011;29046;54.184;18.680;2023-09-18T08:12:19;11.13;;;7.70;;
43457;SDS011;29046;54.184;18.680;2023-09-18T08:14:46;10.85;;;8.10;;
43457;SDS011;29046;54.184;18.680;2023-09-18T08:17:16;12.48;;;8.20;;
43457;SDS011;29046;54.184;18.680;2023-09-18T08:19:43;9.70;;;8.20;;
43457;SDS011;29046;54.184;18.680;2023-09-18T08:22:11;9.73;;;7.93;;
43457;SDS011;29046;54.184;18.680;2023-09-18T08:24:41;10.07;;;8.00;;
43457;SDS011;29046;54.184;18.680;2023-09-18T08:27:10;10.43;;;7.57;;
43457;SDS011;29046;54.184;18.680;2023-09-18T08:29:38;9.10;;;7.55;;
43457;SDS011;29046;54.184;18.680;2023-09-18T08:32:06;11.98;;;8.43;;
43457;SDS011;29046;54.184;18.680;2023-09-18T08:34:33;10.80;;;8.88;;
43457;SDS011;29046;54.184;18.680;2023-09-18T08:37:02;9.45;;;8.13;;
43457;SDS011;29046;54.184;18.680;2023-09-18T08:39:30;12.00;;;8.18;;
43457;SDS011;29046;54.184;18.680;2023-09-18T08:42:04;13.05;;;8.13;;
43457;SDS011;29046;54.184;18.680;2023-09-18T08:44:33;11.38;;;7.55;;
43457;SDS011;29046;54.184;18.680;2023-09-18T08:47:03;15.85;;;8.93;;
43457;SDS011;29046;54.184;18.680;2023-09-18T08:49:30;12.27;;;7.85;;
43457;SDS011;29046;54.184;18.680;2023-09-18T08:51:59;10.80;;;7.93;;
43457;SDS011;29046;54.184;18.680;2023-09-18T08:54:27;13.77;;;8.55;;
43457;SDS011;29046;54.184;18.680;2023-09-18T08:56:56;11.88;;;7.07;;
43457;SDS011;29046;54.184;18.680;2023-09-18T08:59:23;13.43;;;7.70;;
43457;SDS011;29046;54.184;18.680;2023-09-18T09:01:53;9.82;;;8.10;;
43457;SDS011;29046;54.184;18.680;2023-09-18T09:04:20;10.70;;;7.63;;
43457;SDS011;29046;54.184;18.680;2023-09-18T09:06:48;9.75;;;6.97;;
43457;SDS011;29046;54.184;18.680;2023-09-18T09:09:16;9.15;;;6.70;;
43457;SDS011;29046;54.184;18.680;2023-09-18T09:11:48;9.52;;;6.43;;
43457;SDS011;29046;54.184;18.680;2023-09-18T09:14:15;8.15;;;7.03;;
43457;SDS011;29046;54.184;18.680;2023-09-18T09:16:49;9.30;;;7.38;;
43457;SDS011;29046;54.184;18.680;2023-09-18T09:19:17;9.63;;;6.10;;
43457;SDS011;29046;54.184;18.680;2023-09-18T09:21:46;12.50;;;6.45;;
43457;SDS011;29046;54.184;18.680;2023-09-18T09:24:13;6.25;;;5.65;;
43457;SDS011;29046;54.184;18.680;2023-09-18T09:26:41;6.65;;;5.97;;
43457;SDS011;29046;54.184;18.680;2023-09-18T09:29:16;9.80;;;6.53;;
43457;SDS011;29046;54.184;18.680;2023-09-18T09:31:48;8.13;;;5.97;;
43457;SDS011;29046;54.184;18.680;2023-09-18T09:34:24;8.57;;;6.45;;
43457;SDS011;29046;54.184;18.680;2023-09-18T09:36:53;13.43;;;6.57;;
43457;SDS011;29046;54.184;18.680;2023-09-18T09:39:21;10.70;;;5.95;;
43457;SDS011;29046;54.184;18.680;2023-09-18T09:41:52;7.05;;;5.50;;
43457;SDS011;29046;54.184;18.680;2023-09-18T09:44:19;10.00;;;5.55;;
43457;SDS011;29046;54.184;18.680;2023-09-18T09:46:50;9.45;;;5.90;;
43457;SDS011;29046;54.184;18.680;2023-09-18T09:49:18;10.90;;;6.47;;
43457;SDS011;29046;54.184;18.680;2023-09-18T09:51:46;13.10;;;5.50;;
43457;SDS011;29046;54.184;18.680;2023-09-18T09:54:14;6.72;;;5.20;;
43457;SDS011;29046;54.184;18.680;2023-09-18T09:59:10;6.00;;;5.40;;
43457;SDS011;29046;54.184;18.680;2023-09-18T10:01:39;6.60;;;5.35;;
43457;SDS011;29046;54.184;18.680;2023-09-18T10:04:12;7.50;;;4.97;;
43457;SDS011;29046;54.184;18.680;2023-09-18T10:06:56;8.35;;;4.90;;
43457;SDS011;29046;54.184;18.680;2023-09-18T10:09:26;6.75;;;4.72;;
43457;SDS011;29046;54.184;18.680;2023-09-18T10:11:56;5.38;;;4.68;;
43457;SDS011;29046;54.184;18.680;2023-09-18T10:17:01;6.75;;;4.43;;
43457;SDS011;29046;54.184;18.680;2023-09-18T10:19:37;5.28;;;4.25;;
43457;SDS011;29046;54.184;18.680;2023-09-18T10:25:14;4.32;;;3.92;;
43457;SDS011;29046;54.184;18.680;2023-09-18T10:27:47;7.57;;;3.97;;
43457;SDS011;29046;54.184;18.680;2023-09-18T10:30:16;7.95;;;4.25;;
43457;SDS011;29046;54.184;18.680;2023-09-18T10:32:45;5.53;;;4.22;;
43457;SDS011;29046;54.184;18.680;2023-09-18T10:35:15;5.97;;;3.83;;
43457;SDS011;29046;54.184;18.680;2023-09-18T10:37:43;4.97;;;4.20;;
43457;SDS011;29046;54.184;18.680;2023-09-18T10:40:11;7.38;;;4.10;;
43457;SDS011;29046;54.184;18.680;2023-09-18T10:42:39;4.95;;;4.10;;
43457;SDS011;29046;54.184;18.680;2023-09-18T10:45:08;6.43;;;4.15;;
43457;SDS011;29046;54.184;18.680;2023-09-18T10:47:40;7.00;;;4.28;;
43457;SDS011;29046;54.184;18.680;2023-09-18T10:50:11;11.07;;;4.80;;
43457;SDS011;29046;54.184;18.680;2023-09-18T10:52:43;6.22;;;4.30;;
43457;SDS011;29046;54.184;18.680;2023-09-18T10:55:11;5.28;;;4.00;;
43457;SDS011;29046;54.184;18.680;2023-09-18T10:57:53;5.90;;;4.00;;
43457;SDS011;29046;54.184;18.680;2023-09-18T11:00:21;6.35;;;3.97;;
43457;SDS011;29046;54.184;18.680;2023-09-18T11:02:52;9.55;;;4.88;;
43457;SDS011;29046;54.184;18.680;2023-09-18T11:05:29;4.95;;;4.38;;
43457;SDS011;29046;54.184;18.680;2023-09-18T11:13:52;5.28;;;4.00;;
43457;SDS011;29046;54.184;18.680;2023-09-18T11:21:29;6.25;;;4.55;;
43457;SDS011;29046;54.184;18.680;2023-09-18T11:26:54;12.88;;;4.93;;
43457;SDS011;29046;54.184;18.680;2023-09-18T11:29:23;6.32;;;4.25;;
43457;SDS011;29046;54.184;18.680;2023-09-18T11:31:55;5.03;;;4.18;;
43457;SDS011;29046;54.184;18.680;2023-09-18T11:34:32;9.70;;;4.38;;
43457;SDS011;29046;54.184;18.680;2023-09-18T11:37:18;4.53;;;4.13;;
43457;SDS011;29046;54.184;18.680;2023-09-18T11:39:46;5.50;;;4.25;;
43457;SDS011;29046;54.184;18.680;2023-09-18T11:42:17;7.07;;;4.38;;
43457;SDS011;29046;54.184;18.680;2023-09-18T11:44:46;7.50;;;4.20;;
43457;SDS011;29046;54.184;18.680;2023-09-18T11:47:14;6.05;;;4.57;;
43457;SDS011;29046;54.184;18.680;2023-09-18T11:49:50;7.65;;;4.45;;
43457;SDS011;29046;54.184;18.680;2023-09-18T11:52:23;4.82;;;4.32;;
43457;SDS011;29046;54.184;18.680;2023-09-18T11:54:52;5.75;;;4.10;;
43457;SDS011;29046;54.184;18.680;2023-09-18T11:57:21;5.20;;;4.18;;
43457;SDS011;29046;54.184;18.680;2023-09-18T11:59:49;9.32;;;4.78;;
43457;SDS011;29046;54.184;18.680;2023-09-18T12:02:27;7.90;;;4.32;;
43457;SDS011;29046;54.184;18.680;2023-09-18T12:04:55;7.60;;;4.05;;
43457;SDS011;29046;54.184;18.680;2023-09-18T12:07:23;7.28;;;4.55;;
43457;SDS011;29046;54.184;18.680;2023-09-18T12:09:51;7.25;;;4.32;;
43457;SDS011;29046;54.184;18.680;2023-09-18T12:12:21;6.43;;;4.10;;
43457;SDS011;29046;54.184;18.680;2023-09-18T12:14:49;5.07;;;4.00;;
43457;SDS011;29046;54.184;18.680;2023-09-18T12:17:19;5.93;;;4.15;;
43457;SDS011;29046;54.184;18.680;2023-09-18T12:19:51;6.10;;;4.15;;
43457;SDS011;29046;54.184;18.680;2023-09-18T12:22:26;6.22;;;3.97;;
43457;SDS011;29046;54.184;18.680;2023-09-18T12:25:07;9.73;;;3.70;;
43457;SDS011;29046;54.184;18.680;2023-09-18T12:27:40;9.48;;;4.22;;
43457;SDS011;29046;54.184;18.680;2023-09-18T12:30:08;6.13;;;4.45;;
43457;SDS011;29046;54.184;18.680;2023-09-18T12:32:36;4.50;;;4.10;;
43457;SDS011;29046;54.184;18.680;2023-09-18T12:35:07;7.18;;;4.10;;
43457;SDS011;29046;54.184;18.680;2023-09-18T12:37:39;9.75;;;4.40;;
43457;SDS011;29046;54.184;18.680;2023-09-18T12:40:29;6.83;;;4.00;;
43457;SDS011;29046;54.184;18.680;2023-09-18T12:42:56;5.50;;;4.25;;
43457;SDS011;29046;54.184;18.680;2023-09-18T12:45:25;4.65;;;4.25;;
43457;SDS011;29046;54.184;18.680;2023-09-18T12:47:57;8.63;;;4.38;;
43457;SDS011;29046;54.184;18.680;2023-09-18T12:50:25;4.53;;;4.10;;
43457;SDS011;29046;54.184;18.680;2023-09-18T12:52:53;6.03;;;4.10;;
43457;SDS011;29046;54.184;18.680;2023-09-18T12:55:24;9.98;;;4.10;;
43457;SDS011;29046;54.184;18.680;2023-09-18T12:57:52;8.93;;;3.95;;
43457;SDS011;29046;54.184;18.680;2023-09-18T13:00:21;5.70;;;3.97;;
43457;SDS011;29046;54.184;18.680;2023-09-18T13:02:50;5.28;;;4.68;;
43457;SDS011;29046;54.184;18.680;2023-09-18T13:05:25;8.77;;;5.05;;
43457;SDS011;29046;54.184;18.680;2023-09-18T13:07:53;10.02;;;4.80;;
43457;SDS011;29046;54.184;18.680;2023-09-18T13:10:22;7.78;;;4.43;;
43457;SDS011;29046;54.184;18.680;2023-09-18T13:12:54;4.68;;;3.67;;
43457;SDS011;29046;54.184;18.680;2023-09-18T13:15:27;6.65;;;3.78;;
43457;SDS011;29046;54.184;18.680;2023-09-18T13:17:55;4.38;;;3.97;;
43457;SDS011;29046;54.184;18.680;2023-09-18T13:20:24;7.30;;;4.03;;
43457;SDS011;29046;54.184;18.680;2023-09-18T13:22:54;4.55;;;4.10;;
43457;SDS011;29046;54.184;18.680;2023-09-18T13:25:22;6.38;;;3.95;;
43457;SDS011;29046;54.184;18.680;2023-09-18T13:27:50;5.18;;;3.63;;
43457;SDS011;29046;54.184;18.680;2023-09-18T13:30:19;5.93;;;4.07;;
43457;SDS011;29046;54.184;18.680;2023-09-18T13:32:49;5.05;;;3.97;;
43457;SDS011;29046;54.184;18.680;2023-09-18T13:35:17;10.48;;;3.85;;
43457;SDS011;29046;54.184;18.680;2023-09-18T13:37:45;6.70;;;3.85;;
43457;SDS011;29046;54.184;18.680;2023-09-18T13:40:13;9.00;;;4.57;;
43457;SDS011;29046;54.184;18.680;2023-09-18T13:42:41;9.23;;;4.60;;
43457;SDS011;29046;54.184;18.680;2023-09-18T13:45:08;6.22;;;4.05;;
43457;SDS011;29046;54.184;18.680;2023-09-18T13:47:37;7.60;;;4.45;;
43457;SDS011;29046;54.184;18.680;2023-09-18T13:50:05;6.05;;;4.38;;
43457;SDS011;29046;54.184;18.680;2023-09-18T13:52:33;5.85;;;4.43;;
43457;SDS011;29046;54.184;18.680;2023-09-18T13:55:02;5.70;;;4.63;;
43457;SDS011;29046;54.184;18.680;2023-09-18T13:57:32;5.63;;;4.18;;
43457;SDS011;29046;54.184;18.680;2023-09-18T14:00:00;6.07;;;4.63;;
43457;SDS011;29046;54.184;18.680;2023-09-18T14:02:31;7.88;;;5.22;;
43457;SDS011;29046;54.184;18.680;2023-09-18T14:04:59;10.60;;;4.97;;
43457;SDS011;29046;54.184;18.680;2023-09-18T14:07:27;7.80;;;5.03;;
43457;SDS011;29046;54.184;18.680;2023-09-18T14:09:55;6.93;;;5.40;;
43457;SDS011;29046;54.184;18.680;2023-09-18T14:12:23;9.30;;;5.03;;
43457;SDS011;29046;54.184;18.680;2023-09-18T14:14:51;9.77;;;4.85;;
43457;SDS011;29046;54.184;18.680;2023-09-18T14:17:18;6.00;;;4.93;;
43457;SDS011;29046;54.184;18.680;2023-09-18T14:19:48;6.00;;;5.20;;
43457;SDS011;29046;54.184;18.680;2023-09-18T14:22:16;7.43;;;5.60;;
43457;SDS011;29046;54.184;18.680;2023-09-18T14:24:43;7.03;;;5.50;;
43457;SDS011;29046;54.184;18.680;2023-09-18T14:27:12;11.90;;;6.07;;
43457;SDS011;29046;54.184;18.680;2023-09-18T14:29:40;8.70;;;6.40;;
43457;SDS011;29046;54.184;18.680;2023-09-18T14:32:07;6.55;;;5.78;;
43457;SDS011;29046;54.184;18.680;2023-09-18T14:34:35;9.50;;;6.60;;
43457;SDS011;29046;54.184;18.680;2023-09-18T14:37:03;7.60;;;6.55;;
43457;SDS011;29046;54.184;18.680;2023-09-18T14:39:31;8.25;;;6.55;;
43457;SDS011;29046;54.184;18.680;2023-09-18T14:41:59;8.57;;;6.55;;
43457;SDS011;29046;54.184;18.680;2023-09-18T14:44:27;12.65;;;7.45;;
43457;SDS011;29046;54.184;18.680;2023-09-18T14:46:54;13.77;;;7.53;;
43457;SDS011;29046;54.184;18.680;2023-09-18T14:49:22;11.00;;;7.45;;
43457;SDS011;29046;54.184;18.680;2023-09-18T14:51:50;11.38;;;7.88;;
43457;SDS011;29046;54.184;18.680;2023-09-18T14:54:20;9.70;;;7.53;;
43457;SDS011;29046;54.184;18.680;2023-09-18T14:56:47;10.13;;;8.52;;